Time;durP1;ratioP1;P1;durP2;ratioP2;P2;SDS_P1;SDS_P2;PMS_P1;PMS_P2;Temp;Humidity;BMP_temperature;BMP_pressure;BME280_temperature;BME280_humidity;BME280_pressure;Samples;Min_cycle;Max_cycle;Signal;HPM_P1;HPM_P2
2023/04/29 00:02:04;;;;;;;6.80;6.30;;;;;;;;;;5051174;28;20384;-81
2023/04/29 00:04:30;;;;;;;6.20;5.70;;;;;;;;;;5049532;28;20882;-81
2023/04/29 00:06:55;;;;;;;6.50;6.00;;;;;;;;;;5051749;28;20404;-81
2023/04/29 00:09:21;;;;;;;5.83;5.43;;;;;;;;;;5051476;28;20409;-81
2023/04/29 00:11:49;;;;;;;5.70;5.30;;;;;;;;;;5052477;28;20460;-81
2023/04/29 00:14:15;;;;;;;5.70;5.20;;;;;;;;;;5055395;28;20403;-81
2023/04/29 00:16:41;;;;;;;5.50;5.10;;;;;;;;;;5055514;28;20381;-81
2023/04/29 00:19:07;;;;;;;5.28;4.88;;;;;;;;;;5055295;28;20389;-81
2023/04/29 00:21:33;;;;;;;6.50;5.83;;;;;;;;;;5055209;28;20389;-81
2023/04/29 00:24:00;;;;;;;8.70;7.80;;;;;;;;;;5055110;28;20792;-81
2023/04/29 00:26:26;;;;;;;8.20;7.40;;;;;;;;;;5066126;28;20437;-81
2023/04/29 00:28:52;;;;;;;7.57;6.88;;;;;;;;;;5057630;28;20413;-81
2023/04/29 00:31:18;;;;;;;6.55;6.00;;;;;;;;;;5055188;28;20377;-81
2023/04/29 00:33:45;;;;;;;6.43;6.03;;;;;;;;;;5055001;28;20493;-81
2023/04/29 00:36:11;;;;;;;6.75;6.13;;;;;;;;;;5055030;28;20373;-81
2023/04/29 00:38:37;;;;;;;5.35;4.95;;;;;;;;;;5054596;28;20874;-81
2023/04/29 00:41:03;;;;;;;4.80;4.40;;;;;;;;;;5054906;28;20374;-81
2023/04/29 00:43:29;;;;;;;4.80;4.40;;;;;;;;;;5054838;28;20374;-81
2023/04/29 00:45:56;;;;;;;4.18;3.80;;;;;;;;;;5054217;28;20468;-81
2023/04/29 00:48:22;;;;;;;5.32;4.93;;;;;;;;;;5054808;28;20469;-81
2023/04/29 00:50:50;;;;;;;5.97;5.47;;;;;;;;;;5054625;28;20433;-81
2023/04/29 00:53:16;;;;;;;5.40;4.82;;;;;;;;;;5054798;28;20451;-81
2023/04/29 00:55:43;;;;;;;5.20;4.80;;;;;;;;;;5054609;28;20432;-81
2023/04/29 00:58:10;;;;;;;6.68;6.18;;;;;;;;;;5054342;28;20462;-81
2023/04/29 01:00:36;;;;;;;8.98;6.50;;;;;;;;;;5054680;28;20468;-81
2023/04/29 01:03:04;;;;;;;6.80;6.30;;;;;;;;;;5054418;28;20378;-81
2023/04/29 01:05:30;;;;;;;7.97;7.38;;;;;;;;;;5054541;28;20396;-81
2023/04/29 01:08:04;;;;;;;10.18;9.43;;;;;;;;;;5054244;28;20394;-81
2023/04/29 01:10:33;;;;;;;8.02;7.32;;;;;;;;;;5054354;28;20463;-81
2023/04/29 01:13:23;;;;;;;9.43;8.70;;;;;;;;;;5054239;28;20482;-81
2023/04/29 01:16:02;;;;;;;9.05;8.30;;;;;;;;;;5054247;28;20377;-81
2023/04/29 01:18:48;;;;;;;9.43;8.63;;;;;;;;;;5054345;28;20384;-81
2023/04/29 01:21:14;;;;;;;9.68;8.98;;;;;;;;;;5052041;28;20392;-81
2023/04/29 01:23:40;;;;;;;11.73;10.80;;;;;;;;;;5053779;28;20382;-81
2023/04/29 01:26:07;;;;;;;13.38;12.32;;;;;;;;;;5062719;28;20376;-81
2023/04/29 01:28:48;;;;;;;14.67;13.37;;;;;;;;;;5059419;28;20389;-81
2023/04/29 01:31:23;;;;;;;17.13;15.63;;;;;;;;;;5054098;28;20381;-80
2023/04/29 01:33:49;;;;;;;17.33;15.82;;;;;;;;;;5053856;28;20448;-81
2023/04/29 01:36:18;;;;;;;18.50;16.73;;;;;;;;;;5054017;28;20374;-81
2023/04/29 01:38:52;;;;;;;16.52;15.13;;;;;;;;;;5053735;28;20467;-81
2023/04/29 01:41:35;;;;;;;16.05;14.55;;;;;;;;;;5054293;28;20499;-81
2023/04/29 01:44:03;;;;;;;15.57;14.10;;;;;;;;;;5053704;28;20373;-81
2023/04/29 01:46:30;;;;;;;16.57;14.97;;;;;;;;;;5046334;28;20432;-81
2023/04/29 01:48:56;;;;;;;15.35;13.95;;;;;;;;;;5047926;28;20559;-81
2023/04/29 01:51:22;;;;;;;14.30;13.10;;;;;;;;;;5053297;28;20425;-81
2023/04/29 01:53:48;;;;;;;12.70;11.70;;;;;;;;;;5051345;28;20475;-81
2023/04/29 01:56:14;;;;;;;12.70;11.68;;;;;;;;;;5052086;28;20513;-81
2023/04/29 01:58:41;;;;;;;13.30;12.10;;;;;;;;;;5053230;28;20393;-81
2023/04/29 02:01:09;;;;;;;13.40;12.20;;;;;;;;;;5053480;28;20468;-81
2023/04/29 02:03:35;;;;;;;14.65;13.45;;;;;;;;;;5053514;28;20870;-81
2023/04/29 02:06:01;;;;;;;14.98;13.73;;;;;;;;;;5053551;28;20436;-81
2023/04/29 02:08:27;;;;;;;14.32;13.15;;;;;;;;;;5053351;28;20713;-81
2023/04/29 02:10:54;;;;;;;13.43;12.32;;;;;;;;;;5053215;28;20898;-81
2023/04/29 02:13:21;;;;;;;14.73;13.30;;;;;;;;;;5053083;28;20377;-81
2023/04/29 02:15:47;;;;;;;15.05;13.65;;;;;;;;;;5053135;28;20374;-81
2023/04/29 02:18:13;;;;;;;14.93;13.60;;;;;;;;;;5053117;28;20373;-81
2023/04/29 02:20:39;;;;;;;13.95;12.75;;;;;;;;;;5053172;28;20420;-81
2023/04/29 02:23:05;;;;;;;14.45;13.15;;;;;;;;;;5052994;28;20461;-81
2023/04/29 02:25:31;;;;;;;16.45;14.77;;;;;;;;;;5049644;28;20429;-81
2023/04/29 02:27:57;;;;;;;15.77;14.30;;;;;;;;;;5051484;28;20412;-81
2023/04/29 02:30:22;;;;;;;18.25;16.42;;;;;;;;;;5052948;28;20405;-81
2023/04/29 02:32:48;;;;;;;22.05;18.55;;;;;;;;;;5052249;28;20392;-81
2023/04/29 02:35:15;;;;;;;19.33;17.38;;;;;;;;;;5063959;28;20455;-81
2023/04/29 02:37:41;;;;;;;18.25;16.45;;;;;;;;;;5058703;28;20378;-81
2023/04/29 02:40:07;;;;;;;19.90;17.85;;;;;;;;;;5056463;28;20387;-81
2023/04/29 02:42:33;;;;;;;18.92;17.02;;;;;;;;;;5060312;28;20389;-81
2023/04/29 02:44:59;;;;;;;19.90;17.80;;;;;;;;;;5060654;28;20901;-81
2023/04/29 02:47:26;;;;;;;19.23;17.20;;;;;;;;;;5062390;28;20383;-81
2023/04/29 02:49:52;;;;;;;18.95;16.85;;;;;;;;;;5058710;28;20974;-81
2023/04/29 02:52:17;;;;;;;20.38;18.05;;;;;;;;;;5064437;28;20403;-81
2023/04/29 02:54:43;;;;;;;29.30;23.17;;;;;;;;;;5058594;28;20377;-80
2023/04/29 02:57:09;;;;;;;35.00;26.23;;;;;;;;;;5062188;28;20383;-80
2023/04/29 02:59:36;;;;;;;37.13;27.10;;;;;;;;;;5060076;28;20393;-80
2023/04/29 03:02:02;;;;;;;34.83;26.20;;;;;;;;;;5060536;28;20385;-80
2023/04/29 03:04:28;;;;;;;32.58;24.33;;;;;;;;;;5061939;28;20391;-81
2023/04/29 03:06:58;;;;;;;25.40;22.27;;;;;;;;;;5058611;28;20386;-81
2023/04/29 03:09:24;;;;;;;23.63;21.10;;;;;;;;;;5063287;28;20408;-81
2023/04/29 03:11:50;;;;;;;24.10;20.98;;;;;;;;;;5058252;28;20396;-81
2023/04/29 03:14:16;;;;;;;21.73;19.48;;;;;;;;;;5063161;28;20752;-81
2023/04/29 03:16:43;;;;;;;22.98;20.50;;;;;;;;;;5059160;28;20464;-81
2023/04/29 03:19:09;;;;;;;21.08;18.75;;;;;;;;;;5056385;28;20407;-81
2023/04/29 03:21:35;;;;;;;19.52;17.63;;;;;;;;;;5060839;28;20393;-81
2023/04/29 03:24:01;;;;;;;20.08;18.00;;;;;;;;;;5064950;28;20414;-81
2023/04/29 03:26:27;;;;;;;19.27;17.40;;;;;;;;;;5060683;28;20795;-81
2023/04/29 03:28:53;;;;;;;19.42;17.50;;;;;;;;;;5055615;28;20422;-81
2023/04/29 03:31:21;;;;;;;20.00;17.73;;;;;;;;;;5055135;28;20385;-81
2023/04/29 03:33:47;;;;;;;17.67;16.02;;;;;;;;;;5060637;28;20375;-81
2023/04/29 03:36:14;;;;;;;19.77;17.65;;;;;;;;;;5057573;28;20376;-81
2023/04/29 03:38:40;;;;;;;18.58;16.77;;;;;;;;;;5064975;28;20848;-81
2023/04/29 03:41:06;;;;;;;18.40;16.60;;;;;;;;;;5060412;28;20823;-81
2023/04/29 03:43:32;;;;;;;18.77;16.98;;;;;;;;;;5066552;28;20400;-81
2023/04/29 03:45:58;;;;;;;18.30;16.70;;;;;;;;;;5062661;28;20388;-81
2023/04/29 03:48:24;;;;;;;16.40;15.00;;;;;;;;;;5069160;28;20467;-81
2023/04/29 03:50:50;;;;;;;18.67;16.88;;;;;;;;;;5068670;28;20418;-81
2023/04/29 03:53:17;;;;;;;20.50;18.50;;;;;;;;;;5059444;28;20387;-80
2023/04/29 03:55:43;;;;;;;19.08;17.27;;;;;;;;;;5059562;28;20380;-81
2023/04/29 03:58:09;;;;;;;17.02;15.43;;;;;;;;;;5065427;28;20777;-81
2023/04/29 04:00:35;;;;;;;18.77;17.00;;;;;;;;;;5070568;28;20394;-80
2023/04/29 04:03:01;;;;;;;19.35;17.50;;;;;;;;;;5066112;28;20416;-80
2023/04/29 04:05:28;;;;;;;18.00;16.50;;;;;;;;;;5069843;28;20386;-80
2023/04/29 04:07:54;;;;;;;19.03;17.17;;;;;;;;;;5067733;28;20376;-80
2023/04/29 04:10:20;;;;;;;19.08;17.20;;;;;;;;;;5064515;28;20500;-81
2023/04/29 04:12:46;;;;;;;18.10;16.40;;;;;;;;;;5064418;28;20817;-81
2023/04/29 04:15:12;;;;;;;18.67;16.80;;;;;;;;;;5065843;28;20431;-80
2023/04/29 04:17:39;;;;;;;19.40;17.50;;;;;;;;;;5070270;28;20376;-80
2023/04/29 04:20:05;;;;;;;19.08;17.15;;;;;;;;;;5065396;28;20388;-80
2023/04/29 04:22:31;;;;;;;18.52;16.73;;;;;;;;;;5069854;28;20417;-80
2023/04/29 04:24:57;;;;;;;18.90;16.90;;;;;;;;;;5071317;28;20387;-81
2023/04/29 04:27:23;;;;;;;18.15;16.58;;;;;;;;;;5056236;28;20389;-81
2023/04/29 04:29:53;;;;;;;19.48;17.58;;;;;;;;;;5055160;28;20458;-80
2023/04/29 04:32:19;;;;;;;20.77;18.97;;;;;;;;;;5055048;28;20928;-80
2023/04/29 04:34:45;;;;;;;20.60;18.60;;;;;;;;;;5054796;28;20394;-81
2023/04/29 04:37:11;;;;;;;21.85;19.65;;;;;;;;;;5068922;28;20849;-81
2023/04/29 04:39:38;;;;;;;20.15;18.27;;;;;;;;;;5055050;28;20400;-81
2023/04/29 04:42:04;;;;;;;22.42;20.20;;;;;;;;;;5055097;28;20874;-80
2023/04/29 04:44:33;;;;;;;24.07;21.43;;;;;;;;;;5054751;28;20419;-80
2023/04/29 04:47:02;;;;;;;23.02;20.65;;;;;;;;;;5042822;28;20383;-80
2023/04/29 04:49:28;;;;;;;21.63;19.37;;;;;;;;;;5053500;28;20401;-82
2023/04/29 04:51:54;;;;;;;18.38;16.67;;;;;;;;;;5055511;28;20461;-80
2023/04/29 04:54:20;;;;;;;19.65;17.95;;;;;;;;;;5055284;28;20443;-80
2023/04/29 04:56:47;;;;;;;17.67;16.08;;;;;;;;;;5054741;28;20838;-82
2023/04/29 04:59:13;;;;;;;17.08;15.65;;;;;;;;;;5053708;28;20924;-81
2023/04/29 05:01:39;;;;;;;17.57;16.00;;;;;;;;;;5054941;28;20398;-81
2023/04/29 05:04:05;;;;;;;15.10;13.98;;;;;;;;;;5054838;28;20779;-81
2023/04/29 05:06:31;;;;;;;15.70;14.60;;;;;;;;;;5054464;28;20471;-82
2023/04/29 05:08:57;;;;;;;15.20;14.00;;;;;;;;;;5054398;28;20417;-80
2023/04/29 05:11:23;;;;;;;13.85;12.85;;;;;;;;;;5055821;28;20726;-80
2023/04/29 05:13:49;;;;;;;14.40;13.20;;;;;;;;;;5065204;28;20438;-80
2023/04/29 05:16:16;;;;;;;14.60;13.30;;;;;;;;;;5054286;28;20384;-80
2023/04/29 05:18:44;;;;;;;13.80;12.73;;;;;;;;;;5054191;28;20465;-80
2023/04/29 05:21:10;;;;;;;15.68;14.45;;;;;;;;;;5054527;28;20459;-79
2023/04/29 05:23:37;;;;;;;14.63;13.40;;;;;;;;;;5054066;28;20743;-80
2023/04/29 05:26:03;;;;;;;15.98;14.73;;;;;;;;;;5054157;28;20456;-80
2023/04/29 05:28:29;;;;;;;14.75;13.45;;;;;;;;;;5054042;28;20886;-80
2023/04/29 05:30:55;;;;;;;15.47;14.17;;;;;;;;;;5054117;28;20413;-80
2023/04/29 05:33:21;;;;;;;15.65;14.30;;;;;;;;;;5054036;28;20382;-80
2023/04/29 05:35:47;;;;;;;15.50;14.30;;;;;;;;;;5053886;28;20374;-80
2023/04/29 05:38:13;;;;;;;16.07;14.67;;;;;;;;;;5053953;28;20412;-79
2023/04/29 05:40:39;;;;;;;16.35;14.95;;;;;;;;;;5053826;28;20847;-80
2023/04/29 05:43:06;;;;;;;15.98;14.63;;;;;;;;;;5053793;28;20464;-79
2023/04/29 05:45:32;;;;;;;15.27;14.02;;;;;;;;;;5053007;28;20445;-80
2023/04/29 05:47:58;;;;;;;15.98;14.68;;;;;;;;;;5059391;28;20479;-80
2023/04/29 05:50:24;;;;;;;15.98;14.48;;;;;;;;;;5061279;28;20401;-80
2023/04/29 05:52:50;;;;;;;15.40;14.20;;;;;;;;;;5053526;28;20385;-80
2023/04/29 05:55:16;;;;;;;14.77;13.47;;;;;;;;;;5051860;28;20431;-80
2023/04/29 05:57:42;;;;;;;14.05;12.95;;;;;;;;;;5051258;28;20412;-80
2023/04/29 06:00:09;;;;;;;14.75;13.45;;;;;;;;;;5053620;28;20377;-80
2023/04/29 06:02:35;;;;;;;13.13;12.02;;;;;;;;;;5053444;28;20396;-80
2023/04/29 06:05:00;;;;;;;13.32;12.32;;;;;;;;;;5053609;28;20377;-80
2023/04/29 06:07:27;;;;;;;13.10;12.10;;;;;;;;;;5053379;28;20858;-80
2023/04/29 06:09:53;;;;;;;12.85;11.73;;;;;;;;;;5052342;28;20401;-80
2023/04/29 06:12:19;;;;;;;12.38;11.27;;;;;;;;;;5053305;28;20373;-80
2023/04/29 06:14:45;;;;;;;11.75;10.85;;;;;;;;;;5063738;28;20739;-80
2023/04/29 06:17:11;;;;;;;11.48;10.65;;;;;;;;;;5037244;28;20871;-80
2023/04/29 06:19:37;;;;;;;10.57;9.70;;;;;;;;;;5059650;28;20398;-80
2023/04/29 06:22:03;;;;;;;10.45;9.65;;;;;;;;;;5057629;28;20392;-80
2023/04/29 06:24:29;;;;;;;10.45;9.55;;;;;;;;;;5049376;28;20384;-80
2023/04/29 06:26:55;;;;;;;9.75;9.02;;;;;;;;;;5058792;28;20487;-80
2023/04/29 06:29:21;;;;;;;9.07;8.37;;;;;;;;;;5064042;28;20963;-80
2023/04/29 06:31:47;;;;;;;9.30;8.48;;;;;;;;;;5060220;28;20391;-80
2023/04/29 06:34:13;;;;;;;9.10;8.38;;;;;;;;;;5058467;28;20385;-80
2023/04/29 06:36:40;;;;;;;9.57;8.80;;;;;;;;;;5062657;28;20376;-80
2023/04/29 06:39:06;;;;;;;9.25;8.55;;;;;;;;;;5056172;28;20385;-80
2023/04/29 06:41:33;;;;;;;9.13;8.43;;;;;;;;;;5070381;28;20400;-80
2023/04/29 06:43:59;;;;;;;8.85;8.10;;;;;;;;;;5069128;28;20411;-80
2023/04/29 06:46:26;;;;;;;8.30;7.70;;;;;;;;;;5064961;28;20381;-81
2023/04/29 06:48:52;;;;;;;8.40;7.70;;;;;;;;;;5066136;28;20733;-81
2023/04/29 06:51:18;;;;;;;7.50;7.00;;;;;;;;;;5065403;28;20404;-80
2023/04/29 06:53:45;;;;;;;7.38;6.78;;;;;;;;;;5053443;28;20869;-80
2023/04/29 06:56:11;;;;;;;7.50;6.90;;;;;;;;;;5053060;28;20508;-80
2023/04/29 06:58:38;;;;;;;7.45;6.85;;;;;;;;;;5058248;28;20471;-80
2023/04/29 07:01:05;;;;;;;6.70;6.20;;;;;;;;;;5054535;28;20471;-80
2023/04/29 07:03:31;;;;;;;6.27;5.70;;;;;;;;;;5061782;28;20510;-80
2023/04/29 07:05:57;;;;;;;5.82;5.43;;;;;;;;;;5065784;28;20383;-80
2023/04/29 07:08:24;;;;;;;6.00;5.50;;;;;;;;;;5053177;28;20381;-81
2023/04/29 07:10:54;;;;;;;5.70;5.30;;;;;;;;;;5061812;28;20848;-80
2023/04/29 07:13:20;;;;;;;5.60;5.20;;;;;;;;;;5058257;28;20389;-80
2023/04/29 07:15:46;;;;;;;5.25;4.88;;;;;;;;;;5060408;28;20467;-80
2023/04/29 07:18:12;;;;;;;4.95;4.55;;;;;;;;;;5056293;28;20393;-81
2023/04/29 07:20:38;;;;;;;4.38;4.07;;;;;;;;;;5067137;28;20383;-81
2023/04/29 07:23:04;;;;;;;5.28;4.95;;;;;;;;;;5068839;28;20395;-81
2023/04/29 07:25:30;;;;;;;5.00;4.60;;;;;;;;;;5053640;28;20388;-81
2023/04/29 07:27:56;;;;;;;4.70;4.35;;;;;;;;;;5072378;28;20738;-81
2023/04/29 07:30:23;;;;;;;4.78;4.30;;;;;;;;;;5058496;28;20520;-80
2023/04/29 07:32:49;;;;;;;5.00;4.20;;;;;;;;;;5051816;28;20370;-80
2023/04/29 07:35:15;;;;;;;4.47;4.18;;;;;;;;;;5051697;28;20392;-81
2023/04/29 07:37:42;;;;;;;4.50;4.15;;;;;;;;;;5069055;28;20376;-80
2023/04/29 07:40:08;;;;;;;4.03;3.72;;;;;;;;;;5071479;28;20888;-80
2023/04/29 07:42:34;;;;;;;3.90;3.60;;;;;;;;;;5056040;28;20385;-81
2023/04/29 07:45:00;;;;;;;3.75;3.45;;;;;;;;;;5064474;28;20458;-81
2023/04/29 07:47:27;;;;;;;3.50;3.20;;;;;;;;;;5064005;28;20426;-81
2023/04/29 07:49:53;;;;;;;3.30;3.10;;;;;;;;;;5062270;28;20439;-81
2023/04/29 07:52:19;;;;;;;3.10;2.90;;;;;;;;;;5059670;28;20381;-82
2023/04/29 07:54:45;;;;;;;3.97;3.60;;;;;;;;;;5065828;28;20373;-82
2023/04/29 07:57:11;;;;;;;3.60;3.30;;;;;;;;;;5034403;28;20469;-81
2023/04/29 07:59:37;;;;;;;2.85;2.65;;;;;;;;;;5062128;28;20403;-82
2023/04/29 08:02:03;;;;;;;2.70;2.50;;;;;;;;;;5060976;28;20387;-81
2023/04/29 08:04:29;;;;;;;2.80;2.50;;;;;;;;;;5068959;28;20375;-81
2023/04/29 08:06:55;;;;;;;2.85;2.25;;;;;;;;;;5068232;28;20785;-81
2023/04/29 08:09:21;;;;;;;3.40;2.40;;;;;;;;;;5071161;28;20494;-81
2023/04/29 08:11:47;;;;;;;2.33;2.08;;;;;;;;;;5062503;28;20452;-81
2023/04/29 08:14:13;;;;;;;2.20;2.10;;;;;;;;;;5060423;28;20748;-80
2023/04/29 08:16:40;;;;;;;3.53;2.03;;;;;;;;;;5056339;28;20564;-80
2023/04/29 08:19:06;;;;;;;3.08;2.30;;;;;;;;;;5052392;28;20412;-81
2023/04/29 08:21:33;;;;;;;2.50;2.30;;;;;;;;;;5053874;28;20413;-81
2023/04/29 08:23:59;;;;;;;2.40;2.20;;;;;;;;;;5054079;28;20374;-82
2023/04/29 08:26:26;;;;;;;2.38;2.13;;;;;;;;;;5065060;28;20398;-82
2023/04/29 08:28:52;;;;;;;2.43;2.23;;;;;;;;;;5071230;28;20372;-82
2023/04/29 08:31:21;;;;;;;2.88;2.38;;;;;;;;;;5071387;28;20376;-82
2023/04/29 08:33:47;;;;;;;2.67;1.98;;;;;;;;;;5057638;28;20755;-81
2023/04/29 08:36:13;;;;;;;14.05;7.70;;;;;;;;;;5055109;28;20464;-81
2023/04/29 08:38:39;;;;;;;2.22;2.03;;;;;;;;;;5054997;28;20378;-81
2023/04/29 08:41:08;;;;;;;2.20;2.00;;;;;;;;;;5054943;28;20397;-82
2023/04/29 08:43:39;;;;;;;3.33;3.00;;;;;;;;;;5055427;28;20942;-81
2023/04/29 08:46:05;;;;;;;4.38;3.95;;;;;;;;;;5055090;28;20435;-82
2023/04/29 08:48:32;;;;;;;2.83;2.20;;;;;;;;;;5054858;28;20515;-82
2023/04/29 08:50:59;;;;;;;2.30;1.65;;;;;;;;;;5054730;28;20496;-81
2023/04/29 08:53:25;;;;;;;2.42;1.58;;;;;;;;;;5054938;28;20370;-82
2023/04/29 08:55:52;;;;;;;2.92;1.50;;;;;;;;;;5054697;28;20381;-82
2023/04/29 08:58:18;;;;;;;2.60;1.52;;;;;;;;;;5054546;28;20432;-81
2023/04/29 09:00:45;;;;;;;5.18;3.03;;;;;;;;;;5054728;28;20388;-81
2023/04/29 09:03:11;;;;;;;3.95;2.90;;;;;;;;;;5054740;28;20378;-82
2023/04/29 09:05:37;;;;;;;2.67;1.92;;;;;;;;;;5054621;28;20413;-81
2023/04/29 09:08:04;;;;;;;1.40;1.30;;;;;;;;;;5036848;28;20386;-83
2023/04/29 09:10:30;;;;;;;2.40;1.60;;;;;;;;;;5054442;28;20491;-82
2023/04/29 09:12:57;;;;;;;1.87;1.57;;;;;;;;;;5054328;28;20396;-81
2023/04/29 09:15:23;;;;;;;1.75;1.50;;;;;;;;;;5054378;28;20374;-81
2023/04/29 09:17:49;;;;;;;1.53;1.30;;;;;;;;;;5054260;28;20381;-82
2023/04/29 09:20:21;;;;;;;1.40;1.30;;;;;;;;;;5053128;28;20382;-82
2023/04/29 09:22:51;;;;;;;1.67;1.13;;;;;;;;;;5052689;28;20489;-81
2023/04/29 09:25:18;;;;;;;1.90;1.17;;;;;;;;;;5054304;28;20389;-82
2023/04/29 09:27:44;;;;;;;4.80;1.60;;;;;;;;;;5061909;28;20387;-82
2023/04/29 09:30:11;;;;;;;1.92;1.40;;;;;;;;;;5060424;28;20594;-82
2023/04/29 09:32:37;;;;;;;1.90;1.00;;;;;;;;;;5042175;28;20388;-82
2023/04/29 09:35:23;;;;;;;1.10;0.98;;;;;;;;;;5054195;28;20377;-82
2023/04/29 09:37:50;;;;;;;1.83;1.00;;;;;;;;;;5040863;28;20460;-82
2023/04/29 09:40:33;;;;;;;1.75;1.10;;;;;;;;;;5051852;28;20439;-82
2023/04/29 09:42:59;;;;;;;2.55;1.30;;;;;;;;;;5041250;28;20373;-82
2023/04/29 09:45:35;;;;;;;2.13;1.40;;;;;;;;;;5053809;28;20382;-83
2023/04/29 09:48:02;;;;;;;2.25;1.00;;;;;;;;;;5040887;28;20452;-82
2023/04/29 09:50:28;;;;;;;1.88;0.90;;;;;;;;;;5053778;28;20456;-82
2023/04/29 09:52:54;;;;;;;2.63;1.08;;;;;;;;;;5054993;28;20718;-83
2023/04/29 09:55:20;;;;;;;2.25;1.25;;;;;;;;;;5053743;28;20373;-82
2023/04/29 09:57:46;;;;;;;1.40;1.00;;;;;;;;;;5053324;28;20405;-82
2023/04/29 10:00:14;;;;;;;1.10;0.80;;;;;;;;;;5053847;28;20421;-82
2023/04/29 10:02:42;;;;;;;2.33;1.23;;;;;;;;;;5053417;28;20417;-82
2023/04/29 10:05:09;;;;;;;1.88;1.08;;;;;;;;;;5053544;28;20378;-82
2023/04/29 10:07:38;;;;;;;0.98;0.80;;;;;;;;;;5053446;28;20444;-82
2023/04/29 10:10:06;;;;;;;3.03;1.20;;;;;;;;;;5053335;28;20406;-82
2023/04/29 10:12:34;;;;;;;2.27;0.70;;;;;;;;;;5053354;28;20385;-84
2023/04/29 10:15:00;;;;;;;1.45;0.90;;;;;;;;;;5052801;28;20389;-83
2023/04/29 10:17:35;;;;;;;1.08;0.70;;;;;;;;;;5053548;28;20393;-82
2023/04/29 10:20:05;;;;;;;1.60;0.77;;;;;;;;;;5071394;28;20372;-82
2023/04/29 10:22:41;;;;;;;1.43;0.73;;;;;;;;;;5062521;28;20444;-83
2023/04/29 10:25:10;;;;;;;1.05;0.70;;;;;;;;;;5052844;28;20381;-82
2023/04/29 10:27:37;;;;;;;1.65;0.70;;;;;;;;;;5052682;28;20938;-83
2023/04/29 10:30:03;;;;;;;1.42;0.70;;;;;;;;;;5053004;28;20433;-83
2023/04/29 10:32:30;;;;;;;0.95;0.60;;;;;;;;;;5052893;28;20384;-82
2023/04/29 10:34:56;;;;;;;1.00;0.55;;;;;;;;;;5052961;28;20377;-82
2023/04/29 10:37:23;;;;;;;1.27;0.73;;;;;;;;;;5052707;28;20405;-83
2023/04/29 10:40:07;;;;;;;1.52;0.63;;;;;;;;;;5052874;28;20867;-82
2023/04/29 10:42:49;;;;;;;4.00;0.80;;;;;;;;;;5052471;28;20479;-82
2023/04/29 10:45:28;;;;;;;0.60;0.50;;;;;;;;;;5051890;28;20452;-83
2023/04/29 10:48:07;;;;;;;2.30;0.70;;;;;;;;;;5051361;28;20413;-82
2023/04/29 10:50:49;;;;;;;1.23;0.55;;;;;;;;;;5052545;28;20413;-82
2023/04/29 10:53:15;;;;;;;1.70;0.70;;;;;;;;;;5048184;28;20368;-82
2023/04/29 10:55:42;;;;;;;0.80;0.60;;;;;;;;;;5058481;28;20385;-82
2023/04/29 10:58:26;;;;;;;3.78;0.70;;;;;;;;;;5052384;28;20495;-82
2023/04/29 11:00:52;;;;;;;2.58;0.60;;;;;;;;;;5053503;28;20908;-82
2023/04/29 11:03:37;;;;;;;1.10;0.50;;;;;;;;;;5060769;28;20412;-82
2023/04/29 11:06:10;;;;;;;1.20;0.60;;;;;;;;;;5054983;28;20722;-80
2023/04/29 11:08:39;;;;;;;3.28;0.52;;;;;;;;;;5054523;28;20385;-82
2023/04/29 11:11:08;;;;;;;1.58;0.60;;;;;;;;;;5056596;28;20447;-81
2023/04/29 11:13:38;;;;;;;1.17;0.60;;;;;;;;;;5060319;28;20484;-82
2023/04/29 11:16:04;;;;;;;1.67;0.57;;;;;;;;;;5053699;28;20374;-82
2023/04/29 11:18:30;;;;;;;0.93;0.52;;;;;;;;;;5053527;28;20488;-81
2023/04/29 11:21:05;;;;;;;0.60;0.50;;;;;;;;;;5071179;28;20873;-81
2023/04/29 11:23:35;;;;;;;1.67;0.55;;;;;;;;;;5063227;28;20385;-80
2023/04/29 11:26:01;;;;;;;0.70;0.40;;;;;;;;;;5069959;28;20880;-82
2023/04/29 11:28:28;;;;;;;1.40;0.50;;;;;;;;;;5059316;28;20388;-82
2023/04/29 11:30:54;;;;;;;0.95;0.47;;;;;;;;;;5051819;28;20401;-81
2023/04/29 11:33:20;;;;;;;2.17;0.50;;;;;;;;;;5045740;28;20377;-81
2023/04/29 11:35:46;;;;;;;1.25;0.60;;;;;;;;;;5054573;28;20457;-81
2023/04/29 11:38:12;;;;;;;3.53;0.60;;;;;;;;;;5050767;28;20374;-81
2023/04/29 11:40:50;;;;;;;2.45;0.65;;;;;;;;;;5054137;28;20389;-81
2023/04/29 11:43:17;;;;;;;1.02;0.50;;;;;;;;;;5050733;28;20392;-81
2023/04/29 11:45:45;;;;;;;0.95;0.60;;;;;;;;;;5050943;28;20424;-81
2023/04/29 11:48:17;;;;;;;1.38;0.50;;;;;;;;;;5050640;28;20385;-81
2023/04/29 11:50:43;;;;;;;2.10;0.82;;;;;;;;;;5050749;28;20503;-82
2023/04/29 11:53:10;;;;;;;2.78;0.65;;;;;;;;;;5051067;28;20766;-82
2023/04/29 11:55:36;;;;;;;1.40;0.70;;;;;;;;;;5061219;28;20371;-82
2023/04/29 11:58:03;;;;;;;1.60;0.80;;;;;;;;;;5051150;28;20446;-81
2023/04/29 12:00:30;;;;;;;3.00;1.33;;;;;;;;;;5021755;28;20877;-81
2023/04/29 12:02:57;;;;;;;2.75;0.98;;;;;;;;;;5049380;28;20751;-81
2023/04/29 12:05:26;;;;;;;1.23;0.60;;;;;;;;;;5054241;28;20447;-81
2023/04/29 12:07:54;;;;;;;2.83;0.77;;;;;;;;;;5054916;28;20808;-81
2023/04/29 12:10:20;;;;;;;5.07;1.52;;;;;;;;;;5061434;28;20423;-82
2023/04/29 12:12:47;;;;;;;2.40;0.98;;;;;;;;;;5060957;28;20432;-82
2023/04/29 12:15:13;;;;;;;3.13;1.40;;;;;;;;;;5054368;28;20373;-82
2023/04/29 12:17:40;;;;;;;3.92;1.67;;;;;;;;;;5054675;28;20385;-81
2023/04/29 12:20:08;;;;;;;7.10;1.98;;;;;;;;;;5059011;28;20877;-82
2023/04/29 12:22:34;;;;;;;17.85;4.30;;;;;;;;;;5069923;28;20380;-83
2023/04/29 12:25:03;;;;;;;5.28;1.40;;;;;;;;;;5058033;28;20396;-84
2023/04/29 12:27:29;;;;;;;7.45;2.40;;;;;;;;;;5073524;28;20387;-83
2023/04/29 12:29:56;;;;;;;4.38;1.92;;;;;;;;;;5074833;28;20404;-83
2023/04/29 12:32:23;;;;;;;6.18;1.00;;;;;;;;;;5074151;28;20380;-82
2023/04/29 12:34:51;;;;;;;1.80;1.00;;;;;;;;;;5074425;28;20368;-81
2023/04/29 12:37:17;;;;;;;2.45;2.00;;;;;;;;;;5073683;28;20446;-80
2023/04/29 12:39:44;;;;;;;1.30;1.03;;;;;;;;;;5066069;28;20450;-80
2023/04/29 12:42:16;;;;;;;3.50;1.52;;;;;;;;;;5062618;28;20749;-81
2023/04/29 12:44:45;;;;;;;6.50;5.40;;;;;;;;;;5056516;28;20373;-83
2023/04/29 12:47:12;;;;;;;8.23;6.10;;;;;;;;;;5060586;28;20853;-82
2023/04/29 12:49:41;;;;;;;4.65;3.50;;;;;;;;;;5057449;28;20419;-82
2023/04/29 12:52:09;;;;;;;5.15;2.38;;;;;;;;;;5060293;28;20748;-80
2023/04/29 12:54:35;;;;;;;2.70;2.00;;;;;;;;;;5059653;28;20382;-82
2023/04/29 12:57:02;;;;;;;2.00;1.60;;;;;;;;;;5060314;28;20378;-81
2023/04/29 12:59:28;;;;;;;2.00;1.42;;;;;;;;;;5059409;28;20754;-81
2023/04/29 13:01:54;;;;;;;3.40;3.10;;;;;;;;;;5055206;28;20395;-80
2023/04/29 13:04:20;;;;;;;4.03;3.47;;;;;;;;;;5071982;28;20423;-81
2023/04/29 13:06:46;;;;;;;2.22;1.90;;;;;;;;;;5073895;28;20779;-81
2023/04/29 13:09:12;;;;;;;1.50;0.93;;;;;;;;;;5073782;28;20391;-81
2023/04/29 13:11:39;;;;;;;1.42;0.93;;;;;;;;;;5057563;28;20391;-81
2023/04/29 13:14:08;;;;;;;1.35;0.68;;;;;;;;;;5064345;28;20387;-81
2023/04/29 13:16:34;;;;;;;1.53;0.77;;;;;;;;;;5072274;28;20380;-81
2023/04/29 13:19:03;;;;;;;2.58;2.10;;;;;;;;;;5072353;28;20379;-81
2023/04/29 13:21:30;;;;;;;2.05;1.10;;;;;;;;;;5069944;28;20452;-80
2023/04/29 13:23:56;;;;;;;4.22;3.83;;;;;;;;;;5057342;28;20466;-81
2023/04/29 13:26:23;;;;;;;3.80;3.50;;;;;;;;;;5068402;28;20533;-82
2023/04/29 13:28:50;;;;;;;5.80;4.68;;;;;;;;;;5057141;28;20467;-82
2023/04/29 13:31:16;;;;;;;6.93;5.85;;;;;;;;;;5046501;28;20484;-81
2023/04/29 13:33:42;;;;;;;3.30;2.20;;;;;;;;;;5064966;28;20999;-82
2023/04/29 13:36:08;;;;;;;1.92;1.17;;;;;;;;;;5067961;28;20384;-83
2023/04/29 13:38:34;;;;;;;1.58;1.02;;;;;;;;;;5070927;28;20470;-82
2023/04/29 13:41:00;;;;;;;1.57;1.00;;;;;;;;;;5059388;28;20421;-82
2023/04/29 13:43:26;;;;;;;1.35;1.02;;;;;;;;;;5038760;28;20493;-81
2023/04/29 13:45:53;;;;;;;1.35;1.00;;;;;;;;;;5057101;28;20473;-81
2023/04/29 13:48:19;;;;;;;1.63;1.30;;;;;;;;;;5063959;28;20395;-82
2023/04/29 13:50:45;;;;;;;2.83;1.42;;;;;;;;;;5057921;28;20410;-81
2023/04/29 13:53:11;;;;;;;2.10;1.40;;;;;;;;;;5056129;28;20386;-81
2023/04/29 13:55:37;;;;;;;1.27;1.10;;;;;;;;;;5057360;28;20390;-81
2023/04/29 13:58:03;;;;;;;1.95;1.20;;;;;;;;;;5060042;28;20496;-81
2023/04/29 14:00:29;;;;;;;1.92;1.17;;;;;;;;;;5050017;28;20467;-81
2023/04/29 14:02:55;;;;;;;2.05;1.00;;;;;;;;;;5069414;28;20376;-81
2023/04/29 14:05:21;;;;;;;1.60;1.20;;;;;;;;;;5059685;28;20785;-81
2023/04/29 14:07:47;;;;;;;2.05;1.40;;;;;;;;;;5052812;28;20388;-81
2023/04/29 14:10:13;;;;;;;2.60;1.90;;;;;;;;;;5053049;28;20417;-81
2023/04/29 14:12:39;;;;;;;2.50;2.10;;;;;;;;;;5053229;28;20468;-81
2023/04/29 14:15:06;;;;;;;3.85;2.00;;;;;;;;;;5052985;28;20881;-81
2023/04/29 14:17:32;;;;;;;5.57;3.72;;;;;;;;;;5052962;28;20380;-81
2023/04/29 14:19:58;;;;;;;2.90;2.63;;;;;;;;;;5053182;28;20394;-81
2023/04/29 14:22:26;;;;;;;2.65;1.75;;;;;;;;;;5053017;28;20468;-81
2023/04/29 14:24:51;;;;;;;2.40;2.10;;;;;;;;;;5053217;28;20434;-81
2023/04/29 14:27:17;;;;;;;4.22;3.00;;;;;;;;;;5053316;28;20381;-81
2023/04/29 14:29:45;;;;;;;2.22;1.88;;;;;;;;;;5052708;28;20416;-81
2023/04/29 14:32:11;;;;;;;1.77;1.60;;;;;;;;;;5052511;28;20381;-81
2023/04/29 14:34:37;;;;;;;3.53;2.70;;;;;;;;;;5052817;28;20385;-81